createdAt,value
2022-11-24T00:00:06.763Z,98760.38
2022-11-24T00:03:10.686Z,98762.88
2022-11-24T00:06:15.956Z,98763.78
2022-11-24T00:09:18.922Z,98770.44
2022-11-24T00:12:23.112Z,98773.22
2022-11-24T00:15:26.190Z,98774.34
2022-11-24T00:18:29.707Z,98774.63
2022-11-24T00:21:32.707Z,98774.03
2022-11-24T00:24:36.013Z,98782.69
2022-11-24T00:27:39.101Z,98787.00
2022-11-24T00:30:42.318Z,98792.62
2022-11-24T00:33:49.178Z,98796.06
2022-11-24T00:36:52.540Z,98797.47
2022-11-24T00:39:55.460Z,98798.91
2022-11-24T00:42:58.744Z,98804.56
2022-11-24T00:46:01.974Z,98808.91
2022-11-24T00:49:05.689Z,98805.37
2022-11-24T00:52:09.762Z,98801.44
2022-11-24T00:55:12.982Z,98811.19
2022-11-24T00:58:16.655Z,98813.91
2022-11-24T01:01:26.444Z,98818.19
2022-11-24T01:04:29.535Z,98824.66
2022-11-24T01:07:33.621Z,98817.75
2022-11-24T01:10:37.258Z,98817.41
2022-11-24T01:13:41.426Z,98832.66
2022-11-24T01:16:44.365Z,98834.31
2022-11-24T01:19:49.318Z,98827.69
2022-11-24T01:22:52.522Z,98838.47
2022-11-24T01:25:55.694Z,98833.97
2022-11-24T01:28:59.007Z,98834.75
2022-11-24T01:32:02.288Z,98841.25
2022-11-24T01:35:05.948Z,98842.59
2022-11-24T01:38:09.446Z,98840.91
2022-11-24T01:41:17.421Z,98834.69
2022-11-24T01:44:29.090Z,98842.87
2022-11-24T01:47:38.685Z,98846.97
2022-11-24T01:50:42.983Z,98838.34
2022-11-24T01:53:50.249Z,98853.97
2022-11-24T01:56:55.201Z,98849.81
2022-11-24T02:00:13.194Z,98852.22
2022-11-24T02:03:18.747Z,98863.41
2022-11-24T02:06:30.159Z,98859.81
2022-11-24T02:09:39.615Z,98854.09
2022-11-24T02:12:45.893Z,98868.16
2022-11-24T02:15:49.025Z,98864.75
2022-11-24T02:18:52.761Z,98865.34
2022-11-24T02:21:55.732Z,98863.63
2022-11-24T02:25:07.282Z,98863.63
2022-11-24T02:28:13.789Z,98864.13
2022-11-24T02:31:17.174Z,98868.00
2022-11-24T02:34:20.729Z,98872.22
2022-11-24T02:37:23.923Z,98869.41
2022-11-24T02:40:28.423Z,98868.50
2022-11-24T02:43:37.599Z,98872.28
2022-11-24T02:46:40.607Z,98871.72
2022-11-24T02:49:43.882Z,98871.06
2022-11-24T02:52:46.736Z,98875.53
2022-11-24T02:55:50.697Z,98883.69
2022-11-24T02:58:53.634Z,98886.19
2022-11-24T03:01:56.996Z,98882.75
2022-11-24T03:05:00.546Z,98876.78
2022-11-24T03:08:04.413Z,98877.66
2022-11-24T03:11:07.384Z,98886.75
2022-11-24T03:14:10.806Z,98885.78
2022-11-24T03:17:13.717Z,98886.66
2022-11-24T03:20:17.569Z,98894.25
2022-11-24T03:23:20.515Z,98895.91
2022-11-24T03:26:25.216Z,98898.41
2022-11-24T03:29:28.344Z,98893.81
2022-11-24T03:32:31.681Z,98899.53
2022-11-24T03:35:34.627Z,98895.63
2022-11-24T03:38:38.745Z,98898.06
2022-11-24T03:41:41.678Z,98897.63
2022-11-24T03:44:45.364Z,98908.63
2022-11-24T03:47:51.872Z,98909.22
2022-11-24T03:50:56.535Z,98907.41
2022-11-24T03:53:59.472Z,98919.59
2022-11-24T03:57:03.022Z,98915.69
2022-11-24T04:00:07.025Z,98913.47
2022-11-24T04:03:11.314Z,98912.75
2022-11-24T04:06:14.368Z,98917.69
2022-11-24T04:09:17.630Z,98922.03
2022-11-24T04:12:38.979Z,98922.72
2022-11-24T04:15:43.323Z,98921.13
2022-11-24T04:18:46.216Z,98931.78
2022-11-24T04:21:49.577Z,98932.16
2022-11-24T04:24:52.508Z,98928.25
2022-11-24T04:27:56.527Z,98933.97
2022-11-24T04:31:03.607Z,98939.66
2022-11-24T04:34:07.289Z,98952.66
2022-11-24T04:37:10.502Z,98956.72
2022-11-24T04:40:14.176Z,98958.88
2022-11-24T04:43:18.927Z,98962.78
2022-11-24T04:46:22.315Z,98963.00
2022-11-24T04:49:25.379Z,98956.28
2022-11-24T04:52:30.334Z,98975.56
2022-11-24T04:55:33.193Z,98983.16
2022-11-24T04:58:37.864Z,98987.59
2022-11-24T05:01:43.690Z,98986.81
2022-11-24T05:04:48.252Z,98989.31
2022-11-24T05:07:52.911Z,99002.84
2022-11-24T05:10:56.451Z,99000.47
2022-11-24T05:13:59.655Z,99008.59
2022-11-24T05:17:03.002Z,99010.91
2022-11-24T05:20:07.074Z,99016.41
2022-11-24T05:23:11.096Z,99019.84
2022-11-24T05:26:13.992Z,99028.97
2022-11-24T05:29:17.191Z,99025.66
2022-11-24T05:32:20.633Z,99020.97
2022-11-24T05:35:24.189Z,99029.91
2022-11-24T05:38:27.073Z,99027.22
2022-11-24T05:41:30.160Z,99034.66
2022-11-24T05:44:33.163Z,99039.06
2022-11-24T05:47:37.897Z,99037.25
2022-11-24T05:50:40.851Z,99043.38
2022-11-24T05:53:44.393Z,99046.50
2022-11-24T05:56:47.904Z,99047.72
2022-11-24T05:59:51.246Z,99061.06
2022-11-24T06:02:54.277Z,99063.91
2022-11-24T06:05:59.236Z,99064.25
2022-11-24T06:09:02.724Z,99054.66
2022-11-24T06:12:11.155Z,99068.78
2022-11-24T06:15:15.347Z,99072.25
2022-11-24T06:18:18.526Z,99070.81
2022-11-24T06:21:21.207Z,99084.06
2022-11-24T06:24:24.414Z,99093.87
2022-11-24T06:27:27.852Z,99096.22
2022-11-24T06:30:31.412Z,99101.06
2022-11-24T06:33:35.645Z,99111.94
2022-11-24T06:36:39.546Z,99116.09
2022-11-24T06:39:42.864Z,99111.88
2022-11-24T06:42:51.469Z,99124.13
2022-11-24T06:45:54.411Z,99129.69
2022-11-24T06:49:00.121Z,99142.56
2022-11-24T06:52:03.298Z,99141.47
2022-11-24T06:55:07.126Z,99126.81
2022-11-24T06:58:10.006Z,99137.88
2022-11-24T07:01:32.406Z,99152.09
2022-11-24T07:04:35.465Z,99146.81
2022-11-24T07:07:39.631Z,99158.41
2022-11-24T07:10:42.624Z,99166.66
2022-11-24T07:13:46.645Z,99160.94
2022-11-24T07:16:49.796Z,99168.84
2022-11-24T07:19:53.079Z,99170.84
2022-11-24T07:22:59.407Z,99176.75
2022-11-24T07:26:06.949Z,99170.28
2022-11-24T07:29:10.270Z,99188.31
2022-11-24T07:32:13.500Z,99180.63
2022-11-24T07:35:16.486Z,99182.78
2022-11-24T07:38:20.750Z,99184.87
2022-11-24T07:41:23.706Z,99190.56
2022-11-24T07:44:28.114Z,99201.25
2022-11-24T07:47:30.983Z,99196.38
2022-11-24T07:50:34.113Z,99196.56
2022-11-24T07:53:37.731Z,99204.88
2022-11-24T07:56:40.649Z,99219.19
2022-11-24T07:59:43.240Z,99227.50
2022-11-24T08:02:46.183Z,99220.31
2022-11-24T08:06:16.440Z,99217.53
2022-11-24T08:09:17.925Z,99214.44
2022-11-24T08:12:22.634Z,99215.44
2022-11-24T08:15:25.451Z,99211.91
2022-11-24T08:18:29.659Z,99219.53
2022-11-24T08:21:32.719Z,99229.16
2022-11-24T08:24:36.436Z,99235.94
2022-11-24T08:27:40.320Z,99232.28
2022-11-24T08:30:43.672Z,99236.78
2022-11-24T08:33:47.077Z,99237.38
2022-11-24T08:36:50.989Z,99226.41
2022-11-24T08:39:53.692Z,99238.59
2022-11-24T08:43:00.815Z,99250.62
2022-11-24T08:46:14.517Z,99238.00
2022-11-24T08:49:19.055Z,99240.84
2022-11-24T08:52:22.031Z,99233.56
2022-11-24T08:55:25.297Z,99244.75
2022-11-24T08:58:45.013Z,99247.69
2022-11-24T09:01:49.486Z,99248.97
2022-11-24T09:04:52.607Z,99239.69
2022-11-24T09:07:56.276Z,99247.88
2022-11-24T09:11:00.729Z,99239.44
2022-11-24T09:14:04.902Z,99232.72
2022-11-24T09:17:08.025Z,99230.59
2022-11-24T09:20:11.444Z,99236.22
2022-11-24T09:23:14.821Z,99232.28
2022-11-24T09:26:22.018Z,99243.03
2022-11-24T09:29:25.444Z,99240.38
2022-11-24T09:32:30.672Z,99237.63
2022-11-24T09:35:37.261Z,99231.75
2022-11-24T09:38:41.037Z,99236.28
2022-11-24T09:42:11.888Z,99231.63
2022-11-24T09:46:06.202Z,99237.94
2022-11-24T09:49:22.076Z,99238.28
2022-11-24T09:52:45.523Z,99239.66
2022-11-24T09:55:58.226Z,99240.28
2022-11-24T09:59:03.075Z,99235.81
2022-11-24T10:02:11.956Z,99230.38
2022-11-24T10:05:15.600Z,99225.34
2022-11-24T10:08:27.451Z,99224.56
2022-11-24T10:12:03.434Z,99228.41
2022-11-24T10:18:52.542Z,99228.44
2022-11-24T10:22:30.462Z,99223.69
2022-11-24T10:25:42.847Z,99217.84
2022-11-24T10:28:52.651Z,99229.84
2022-11-24T10:31:56.977Z,99232.78
2022-11-24T10:35:13.708Z,99226.38
2022-11-24T10:38:31.481Z,99233.44
2022-11-24T10:41:45.865Z,99225.88
2022-11-24T10:45:02.186Z,99250.91
2022-11-24T10:48:09.040Z,99237.19
2022-11-24T10:51:30.488Z,99236.72
2022-11-24T10:54:36.082Z,99234.84
2022-11-24T10:57:40.858Z,99229.66
2022-11-24T11:00:43.688Z,99246.31
2022-11-24T11:03:51.921Z,99237.41
2022-11-24T11:07:18.701Z,99235.44
2022-11-24T11:10:25.440Z,99239.91
2022-11-24T11:13:30.414Z,99254.44
2022-11-24T11:16:42.696Z,99249.06
2022-11-24T11:19:49.791Z,99245.94
2022-11-24T11:22:53.963Z,99251.59
2022-11-24T11:26:24.872Z,99257.84
2022-11-24T11:36:21.435Z,99251.94
2022-11-24T11:39:33.100Z,99255.91
2022-11-24T11:43:02.051Z,99256.63
2022-11-24T11:46:12.537Z,99281.94
2022-11-24T11:49:15.925Z,99266.06
2022-11-24T11:52:28.455Z,99272.62
2022-11-24T11:55:45.220Z,99263.78
2022-11-24T11:59:27.664Z,99256.59
2022-11-24T12:02:53.038Z,99264.41
2022-11-24T12:05:59.638Z,99264.88
2022-11-24T12:09:24.313Z,99286.78
2022-11-24T12:12:49.220Z,99279.34
2022-11-24T12:15:54.569Z,99286.56
2022-11-24T12:19:39.832Z,99294.19
2022-11-24T12:22:51.693Z,99276.41
2022-11-24T12:26:20.507Z,99295.94
2022-11-24T12:29:57.647Z,99294.47
2022-11-24T12:33:08.052Z,99290.09
2022-11-24T12:36:30.826Z,99292.50
2022-11-24T12:39:36.959Z,99290.78
2022-11-24T12:43:11.203Z,99297.16
2022-11-24T12:46:56.537Z,99304.91
2022-11-24T12:50:05.595Z,99308.66
2022-11-24T12:53:19.295Z,99308.31
2022-11-24T12:56:35.700Z,99308.03
2022-11-24T12:59:57.235Z,99312.22
2022-11-24T13:03:11.637Z,99314.53
2022-11-24T13:06:23.532Z,99314.03
2022-11-24T13:09:26.444Z,99325.22
2022-11-24T13:12:29.616Z,99318.78
2022-11-24T13:16:13.073Z,99330.31
2022-11-24T13:19:27.011Z,99321.19
2022-11-24T13:22:30.157Z,99324.50
2022-11-24T13:25:35.199Z,99328.97
2022-11-24T13:29:03.648Z,99331.81
2022-11-24T13:32:12.233Z,99317.91
2022-11-24T13:35:16.137Z,99313.66
2022-11-24T13:38:51.385Z,99321.75
2022-11-24T13:41:54.676Z,99335.22
2022-11-24T13:45:00.048Z,99338.53
2022-11-24T13:48:02.933Z,99336.91
2022-11-24T13:51:14.387Z,99339.09
2022-11-24T13:54:17.442Z,99344.16
2022-11-24T13:57:39.584Z,99350.00
2022-11-24T14:01:30.464Z,99348.22
2022-11-24T14:04:36.115Z,99350.25
2022-11-24T14:07:41.814Z,99364.44
2022-11-24T14:10:46.031Z,99368.47
2022-11-24T14:13:48.888Z,99360.28
2022-11-24T14:17:17.091Z,99365.28
2022-11-24T14:20:25.534Z,99371.00
2022-11-24T14:23:30.027Z,99360.41
2022-11-24T14:26:35.677Z,99366.47
2022-11-24T14:29:54.211Z,99369.00
2022-11-24T14:32:58.914Z,99366.94
2022-11-24T14:36:02.423Z,99375.31
2022-11-24T14:39:06.093Z,99357.97
2022-11-24T14:42:21.263Z,99365.09
2022-11-24T14:45:24.450Z,99378.94
2022-11-24T14:48:32.740Z,99375.87
2022-11-24T14:51:43.384Z,99380.28
2022-11-24T14:55:03.953Z,99388.03
2022-11-24T14:58:42.358Z,99383.44
2022-11-24T15:01:45.887Z,99393.22
2022-11-24T15:05:06.858Z,99395.34
2022-11-24T15:08:13.255Z,99398.81
2022-11-24T15:11:16.254Z,99411.00
2022-11-24T15:14:43.528Z,99401.78
2022-11-24T15:17:51.811Z,99401.28
2022-11-24T15:20:55.195Z,99403.19
2022-11-24T15:24:18.130Z,99413.13
2022-11-24T15:27:21.296Z,99412.34
2022-11-24T15:30:27.679Z,99415.50
2022-11-24T15:33:31.131Z,99421.22
2022-11-24T15:36:34.101Z,99427.59
2022-11-24T15:39:37.397Z,99434.28
2022-11-24T15:42:40.721Z,99428.63
2022-11-24T15:45:44.071Z,99433.69
2022-11-24T15:48:47.346Z,99436.47
2022-11-24T15:51:50.583Z,99430.66
2022-11-24T15:54:54.695Z,99432.28
2022-11-24T15:57:57.907Z,99436.66
2022-11-24T16:01:01.395Z,99441.50
2022-11-24T16:04:07.828Z,99446.00
2022-11-24T16:07:14.203Z,99448.53
2022-11-24T16:10:26.134Z,99450.75
2022-11-24T16:13:29.156Z,99448.94
2022-11-24T16:16:32.671Z,99454.16
2022-11-24T16:19:40.313Z,99462.72
2022-11-24T16:22:45.584Z,99456.66
2022-11-24T16:25:48.462Z,99468.09
2022-11-24T16:28:51.996Z,99470.41
2022-11-24T16:31:55.133Z,99474.13
2022-11-24T16:34:59.213Z,99481.50
2022-11-24T16:38:04.629Z,99472.12
2022-11-24T16:41:10.620Z,99481.34
2022-11-24T16:44:13.478Z,99480.78
2022-11-24T16:47:17.061Z,99476.66
2022-11-24T16:50:19.798Z,99486.31
2022-11-24T16:53:23.435Z,99491.00
2022-11-24T16:56:27.303Z,99490.44
2022-11-24T16:59:30.478Z,99499.50
2022-11-24T17:02:37.593Z,99499.50
2022-11-24T17:05:41.038Z,99505.00
2022-11-24T17:08:45.436Z,99504.94
2022-11-24T17:11:48.383Z,99506.69
2022-11-24T17:15:16.487Z,99516.13
2022-11-24T17:18:24.545Z,99510.41
2022-11-24T17:21:28.880Z,99518.03
2022-11-24T17:24:33.845Z,99522.63
2022-11-24T17:27:38.664Z,99518.41
2022-11-24T17:30:42.551Z,99525.78
2022-11-24T17:33:46.232Z,99532.34
2022-11-24T17:36:50.795Z,99541.19
2022-11-24T17:40:20.284Z,99530.53
2022-11-24T17:43:20.878Z,99535.13
2022-11-24T17:46:28.208Z,99543.25
2022-11-24T17:49:32.218Z,99544.41
2022-11-24T17:52:35.155Z,99542.81
2022-11-24T17:55:38.850Z,99542.72
2022-11-24T17:58:43.291Z,99546.25
2022-11-24T18:01:47.505Z,99560.03
2022-11-24T18:04:51.312Z,99564.16
2022-11-24T18:08:07.314Z,99571.63
2022-11-24T18:11:14.863Z,99570.44
2022-11-24T18:14:18.260Z,99578.81
2022-11-24T18:17:21.909Z,99582.50
2022-11-24T18:20:27.057Z,99586.94
2022-11-24T18:23:31.959Z,99589.37
2022-11-24T18:26:35.593Z,99598.06
2022-11-24T18:29:39.475Z,99594.47
2022-11-24T18:32:42.754Z,99598.66
2022-11-24T18:36:04.613Z,99591.47
2022-11-24T18:39:09.286Z,99600.69
2022-11-24T18:42:12.760Z,99601.47
2022-11-24T18:45:15.549Z,99611.06
2022-11-24T18:48:19.676Z,99609.03
2022-11-24T18:51:24.032Z,99618.22
2022-11-24T18:54:28.340Z,99617.75
2022-11-24T18:57:32.254Z,99628.69
2022-11-24T19:00:36.066Z,99629.22
2022-11-24T19:03:48.731Z,99623.12
2022-11-24T19:06:53.193Z,99628.75
2022-11-24T19:09:56.617Z,99631.12
2022-11-24T19:13:00.294Z,99636.78
2022-11-24T19:16:11.425Z,99632.22
2022-11-24T19:19:15.204Z,99631.91
2022-11-24T19:22:18.976Z,99644.41
2022-11-24T19:25:22.864Z,99649.22
2022-11-24T19:28:26.421Z,99650.78
2022-11-24T19:31:30.184Z,99653.47
2022-11-24T19:34:33.945Z,99650.47
2022-11-24T19:37:37.589Z,99647.00
2022-11-24T19:40:41.010Z,99653.62
2022-11-24T19:43:47.073Z,99659.34
2022-11-24T19:46:51.621Z,99663.03
2022-11-24T19:49:56.885Z,99665.69
2022-11-24T19:53:03.112Z,99666.81
2022-11-24T19:56:19.158Z,99672.16
2022-11-24T19:59:24.543Z,99674.28
2022-11-24T20:02:29.964Z,99683.59
2022-11-24T20:05:33.483Z,99686.53
2022-11-24T20:08:37.542Z,99693.19
2022-11-24T20:11:41.824Z,99688.47
2022-11-24T20:14:44.836Z,99700.31
2022-11-24T20:17:49.329Z,99694.94
2022-11-24T20:20:56.542Z,99702.19
2022-11-24T20:24:09.051Z,99706.94
2022-11-24T20:27:13.684Z,99717.31
2022-11-24T20:30:17.334Z,99714.00
2022-11-24T20:33:21.297Z,99726.75
2022-11-24T20:36:30.248Z,99733.22
2022-11-24T20:39:33.702Z,99728.59
2022-11-24T20:42:38.018Z,99736.13
2022-11-24T20:45:41.530Z,99741.13
2022-11-24T20:48:46.797Z,99745.34
2022-11-24T20:51:50.563Z,99749.87
2022-11-24T20:54:55.459Z,99743.03
2022-11-24T20:57:58.815Z,99743.03
2022-11-24T21:01:19.207Z,99741.94
2022-11-24T21:04:24.449Z,99750.19
2022-11-24T21:07:27.710Z,99752.84
2022-11-24T21:10:30.848Z,99753.94
2022-11-24T21:13:35.867Z,99754.19
2022-11-24T21:16:41.027Z,99763.63
2022-11-24T21:19:44.390Z,99761.56
2022-11-24T21:22:47.293Z,99766.47
2022-11-24T21:25:51.431Z,99771.34
2022-11-24T21:28:54.508Z,99765.22
2022-11-24T21:31:58.662Z,99765.37
2022-11-24T21:35:03.702Z,99760.34
2022-11-24T21:38:08.307Z,99766.50
2022-11-24T21:41:12.129Z,99775.78
2022-11-24T21:44:15.471Z,99778.59
2022-11-24T21:47:18.352Z,99772.94
2022-11-24T21:50:21.897Z,99782.84
2022-11-24T21:53:25.328Z,99777.97
2022-11-24T21:56:28.773Z,99782.53
2022-11-24T21:59:31.662Z,99777.19
2022-11-24T22:02:34.836Z,99783.97
2022-11-24T22:05:38.052Z,99786.47
2022-11-24T22:08:41.346Z,99793.72
2022-11-24T22:11:44.908Z,99789.47
2022-11-24T22:14:47.791Z,99792.28
2022-11-24T22:17:52.145Z,99803.00
2022-11-24T22:20:56.268Z,99811.03
2022-11-24T22:24:00.392Z,99812.63
2022-11-24T22:27:03.455Z,99818.13
2022-11-24T22:30:07.769Z,99822.38
2022-11-24T22:33:10.638Z,99820.31
2022-11-24T22:36:14.865Z,99818.91
2022-11-24T22:39:18.038Z,99827.59
2022-11-24T22:42:21.552Z,99820.94
2022-11-24T22:45:24.703Z,99827.25
2022-11-24T22:48:27.893Z,99832.87
2022-11-24T22:51:33.195Z,99826.56
2022-11-24T22:54:36.971Z,99821.22
2022-11-24T22:57:41.446Z,99828.47
2022-11-24T23:00:46.101Z,99835.72
2022-11-24T23:03:50.530Z,99840.63
2022-11-24T23:06:55.298Z,99841.87
2022-11-24T23:09:58.248Z,99846.63
2022-11-24T23:13:02.363Z,99847.91
2022-11-24T23:16:16.045Z,99837.22
2022-11-24T23:19:19.693Z,99842.75
2022-11-24T23:22:23.483Z,99850.94
2022-11-24T23:25:28.529Z,99847.66
2022-11-24T23:28:31.479Z,99848.59
2022-11-24T23:31:40.142Z,99850.66
2022-11-24T23:34:43.267Z,99851.63
2022-11-24T23:38:07.171Z,99850.66
2022-11-24T23:41:12.948Z,99849.91
2022-11-24T23:44:16.152Z,99859.34
2022-11-24T23:47:18.919Z,99858.91
2022-11-24T23:50:22.105Z,99865.97
2022-11-24T23:53:24.952Z,99863.28
2022-11-24T23:56:32.666Z,99863.00
2022-11-24T23:59:36.031Z,99863.44
